Saturday, November 17, 2018, 6:41 AM GMT
Back to Local

CYOW, Ottawa Int'L. Ont.

Location: , , Canada Lat: 45.317
Local Time: 6:41 AM GMT ( 6:41 GMT) Lon: -75.667
Time Zone: GMT Elev: 380 ft

Show me the last for .
Show Decoded

2018-11-17 06:00 METAR CYOW 170600Z 29009KT 6SM -SN FEW008 OVC025 M01/M02 A2979 RMK SC1SC7 SLP095
                 =
2018-11-17 05:54 METAR CYOW 170554Z 28008KT 6SM -SN OVC025 M01/M02 A2979 RMK SC8 SLP094 =
2018-11-17 05:00 METAR CYOW 170500Z 28007KT 15SM OVC021 M02/M03 A2976 RMK SC8 SLP086 =
2018-11-17 04:00 METAR CYOW 170400Z 28006KT 15SM OVC022 M02/M03 A2975 RMK SC8 SLP080 =
2018-11-17 03:00 METAR CYOW 170300Z 27005KT 15SM OVC024 M03/M04 A2972 RMK SC8 SLP073 =
2018-11-17 02:00 METAR CYOW 170200Z 20004KT 15SM OVC016 M04/M04 A2970 RMK SC8 SLP065 =
2018-11-17 01:20 METAR CYOW 170120Z 19004KT 10SM OVC018 M04/M04 A2968 RMK SC8 SLP060 =
2018-11-17 01:00 METAR CYOW 170100Z 19002KT 6SM -SN OVC017 M04/M04 A2968 RMK SC8 SLP058 =
2018-11-17 00:27 METAR CYOW 170027Z 18002KT 4SM -SN OVC018 M04/M05 A2967 RMK SC8 SLP056 =
2018-11-17 00:00 METAR CYOW 170000Z 18002KT 10SM -SN SCT012 OVC030 M04/M05 A2966 RMK SC4SC4
                 SLP053 =
2018-11-16 23:00 METAR CYOW 162300Z 17002KT 7SM -SN BKN020 OVC082 M04/M05 A2966 RMK SC5AC3 /S03/
                 SLP052 =
2018-11-16 22:29 METAR CYOW 162229Z 00000KT 7SM -SN SCT020 OVC043 M04/M05 A2965 RMK SC3SC5 SLP050
                 =
2018-11-16 22:00 METAR CYOW 162200Z 07002KT 2SM -SN OVC025 M04/M05 A2965 RMK SN2SC6 SLP048 =
2018-11-16 21:00 METAR CYOW 162100Z 11004KT 1 1/2SM -SN OVC032 M04/M05 A2964 RMK SN3SC5 /S02/
                 SLP047 =
2018-11-16 20:25 METAR CYOW 162025Z 09005KT 1SM R32/P6000FT/U R07/P6000FT/U -SN OVC026 M04/M05
                 A2964 RMK SN3SC5 SLP046 =
2018-11-16 20:00 METAR CYOW 162000Z 09004KT 1 1/2SM -SN OVC026 M04/M05 A2965 RMK SN3SC5 SLP048 =
2018-11-16 19:00 METAR CYOW 161900Z 08004KT 1 1/2SM -SN OVC022 M04/M05 A2965 RMK SN5SC3 SLP049 =
2018-11-16 18:31 METAR CYOW 161831Z 08006KT 1 1/2SM -SN OVC015 M03/M05 A2966 RMK SN3SC5 SLP051 =
2018-11-16 18:18 METAR CYOW 161818Z 09005KT 7SM -SN BKN015 OVC030 M03/M05 A2966 RMK SC6SC2 SLP053
                 =
2018-11-16 18:00 METAR CYOW 161800Z 09005KT 2 1/2SM -SN BKN012 OVC024 M03/M05 A2966 RMK SC6SC2
                 SLP052 =
2018-11-16 17:46 METAR CYOW 161746Z 09007KT 3SM -SN OVC013 M03/M05 A2966 RMK SC8 SLP054 =
2018-11-16 17:30 METAR CYOW 161730Z 11006KT 10SM -SN OVC013 M03/M06 A2967 RMK SC8 SLP057 =
2018-11-16 17:00 METAR CYOW 161700Z 09006KT 5SM -SN BKN010 OVC024 M03/M05 A2968 RMK SC6SC2 /S04/
                 SLP059 =
2018-11-16 16:25 METAR CYOW 161625Z 07009KT 4SM -SN OVC012 M04/M06 A2969 RMK SC8 SLP064 =
2018-11-16 16:00 METAR CYOW 161600Z 08009KT 2 1/2SM -SN FEW030 OVC036 M04/M06 A2971 RMK SC2SC6
                 SLP068 =
2018-11-16 15:48 METAR CYOW 161548Z 08009KT 2 1/2SM -SN SCT009 OVC028 M04/M06 A2971 RMK SC3SC5
                 SLP069 =
2018-11-16 15:32 METAR CYOW 161532Z 06006KT 1SM R32/P6000FT/N R07/P6000FT/N -SN VV010 M04/M06
                 A2972 RMK SN8 SLP072 =
2018-11-16 15:00 METAR CYOW 161500Z 07008KT 1 1/4SM -SN OVC027 M04/M06 A2972 RMK SN5SC3 /S03/
                 SLP073 =
2018-11-16 14:00 METAR CYOW 161400Z 07009KT 1 1/4SM -SN OVC027 M05/M06 A2974 RMK SN4SC4 /S02/
                 SLP079 =
2018-11-16 13:00 METAR CYOW 161300Z 06010KT 1 1/2SM -SN OVC024 M06/M07 A2977 RMK SN3SC5 SLP089 =
2018-11-16 12:00 METAR CYOW 161200Z CCA 05013KT 2 1/2SM -SN OVC039 M06/M07 A2978 RMK SC8 /S08/
                 SLP095 =
2018-11-16 11:18 METAR CYOW 161118Z 05011KT 1 1/2SM -SN VV010 M06/M08 A2981 RMK SN8 SLP104 =
2018-11-16 11:00 METAR CYOW 161100Z 04012KT 1SM R32/P6000FT/D R07/P6000FT/U -SN VV008 M06/M08
                 A2982 RMK SN8 /S07/ SLP108 =
2018-11-16 10:00 METAR CYOW 161000Z 03011KT 1SM R32/P6000FT/U R07/P6000FT/N -SN VV007 M06/M08
                 A2986 RMK SN8 /S06/ SLP120 =
2018-11-16 09:09 METAR CYOW 160909Z 04008KT 3/4SM R32/P6000FT/D R07/P6000FT/D -SN VV005 M07/M08
                 A2988 RMK SN8 VIS VRB 1/2-1 CIG VRB 4-6 SLP128 =
2018-11-16 09:00 METAR CYOW 160900Z 05008KT 1SM R32/P6000FT/N R07/P6000FT/N -SN VV006 M07/M08
                 A2989 RMK SN8 /S04/ SLP129 =
2018-11-16 08:32 METAR CYOW 160832Z 06007KT 1SM R32/P6000FT/U R07/P6000FT/U -SN VV007 M07/M08
                 A2991 RMK SN8 SLP136 =
2018-11-16 08:16 METAR CYOW 160816Z 06007KT 1 1/2SM -SN VV007 M07/M08 A2992 RMK SN8 SLP139 =
2018-11-16 08:00 METAR CYOW 160800Z 06009KT 1 1/2SM -SN BKN012 OVC024 M07/M08 A2992 RMK SN4SF2SC2
                 /S03/ SLP141 =
2018-11-16 07:00 METAR CYOW 160700Z 06011KT 1 1/2SM -SN VV010 M07/M08 A2995 RMK SN8 /S02/ PRESFR
                 SLP149 =

Support USWX by starting your Amazon purchase here.